Time;durP1;ratioP1;P1;durP2;ratioP2;P2;SDS_P1;SDS_P2;PMS_P1;PMS_P2;Temp;Humidity;BMP_temperature;BMP_pressure;BME280_temperature;BME280_humidity;BME280_pressure;Samples;Min_cycle;Max_cycle;Signal;HPM_P1;HPM_P2
2022/10/14 00:01:45;;;;;;;39.30;25.87;;;9.80;99.90;;;;;;5276751;28;20196;-51
2022/10/14 00:04:15;;;;;;;39.70;24.60;;;9.70;99.90;;;;;;5270089;28;20252;-51
2022/10/14 00:06:46;;;;;;;42.90;27.90;;;9.60;99.90;;;;;;5252659;28;20292;-51
2022/10/14 00:09:17;;;;;;;41.17;26.33;;;9.50;99.90;;;;;;5252296;28;20178;-50
2022/10/14 00:11:48;;;;;;;55.10;31.87;;;9.60;99.90;;;;;;5265696;28;20560;-51
2022/10/14 00:14:19;;;;;;;48.90;28.47;;;9.50;99.90;;;;;;5246048;28;20665;-51
2022/10/14 00:16:53;;;;;;;52.70;30.37;;;9.50;99.90;;;;;;5267816;28;20454;-52
2022/10/14 00:19:23;;;;;;;50.97;30.10;;;9.50;99.90;;;;;;5260927;28;20466;-51
2022/10/14 00:21:54;;;;;;;58.53;29.17;;;9.50;99.90;;;;;;5260061;28;20943;-50
2022/10/14 00:24:24;;;;;;;46.70;29.10;;;9.50;99.90;;;;;;5249221;28;20181;-50
2022/10/14 00:26:55;;;;;;;45.03;27.50;;;9.50;99.90;;;;;;5262507;28;20205;-51
2022/10/14 00:29:25;;;;;;;47.57;30.97;;;9.40;99.90;;;;;;5269393;28;20204;-49
2022/10/14 00:31:56;;;;;;;54.43;31.67;;;9.40;99.90;;;;;;5253912;28;20176;-51
2022/10/14 00:34:26;;;;;;;51.10;31.33;;;9.40;99.90;;;;;;5271918;28;20676;-51
2022/10/14 00:36:57;;;;;;;53.20;32.00;;;9.30;99.90;;;;;;5255830;28;20676;-50
2022/10/14 00:39:28;;;;;;;50.47;30.07;;;9.30;99.90;;;;;;5270507;28;20533;-51
2022/10/14 00:41:58;;;;;;;48.30;28.83;;;9.30;99.90;;;;;;5270837;28;20900;-50
2022/10/14 00:44:29;;;;;;;49.83;28.97;;;9.30;99.90;;;;;;5274501;28;20177;-51
2022/10/14 00:46:59;;;;;;;48.07;28.73;;;9.30;99.90;;;;;;5247773;28;20205;-50
2022/10/14 00:49:34;;;;;;;65.03;30.37;;;9.20;99.90;;;;;;5255202;28;20174;-50
2022/10/14 00:52:10;;;;;;;49.10;28.57;;;9.20;99.90;;;;;;5244401;28;20189;-51
2022/10/14 00:54:45;;;;;;;41.77;26.13;;;9.20;99.90;;;;;;5262591;28;20456;-50
2022/10/14 00:57:16;;;;;;;41.60;26.77;;;9.20;99.90;;;;;;5270395;28;20450;-51
2022/10/14 00:59:47;;;;;;;40.10;26.00;;;9.20;99.90;;;;;;5255815;28;20427;-50
2022/10/14 01:02:18;;;;;;;45.00;25.90;;;9.20;99.90;;;;;;5228264;28;20501;-52
2022/10/14 01:04:48;;;;;;;44.50;28.23;;;9.20;99.90;;;;;;5267653;28;20444;-50
2022/10/14 01:07:36;;;;;;;37.20;24.17;;;9.10;99.90;;;;;;5272067;28;20201;-50
2022/10/14 01:10:17;;;;;;;42.37;26.00;;;9.10;99.90;;;;;;5265937;28;20276;-50
2022/10/14 01:13:13;;;;;;;40.47;25.90;;;9.10;99.90;;;;;;5243302;28;20446;-50
2022/10/14 01:16:05;;;;;;;47.33;24.67;;;9.10;99.90;;;;;;5267034;28;20470;-50
2022/10/14 01:19:01;;;;;;;46.27;23.97;;;9.10;99.90;;;;;;5266673;28;20973;-51
2022/10/14 01:21:45;;;;;;;36.43;24.20;;;9.10;99.90;;;;;;5257791;28;20420;-49
2022/10/14 01:24:51;;;;;;;38.27;23.40;;;9.00;99.90;;;;;;5248227;28;20462;-51
2022/10/14 01:27:55;;;;;;;40.33;23.53;;;9.00;99.90;;;;;;5253835;28;20965;-51
2022/10/14 01:30:46;;;;;;;32.83;21.60;;;9.00;99.90;;;;;;5268279;28;20481;-51
2022/10/14 01:33:23;;;;;;;30.33;20.70;;;9.00;99.90;;;;;;5267097;28;20943;-51
2022/10/14 01:36:14;;;;;;;31.33;21.97;;;8.90;99.90;;;;;;5245932;28;20464;-51
2022/10/14 01:39:06;;;;;;;34.67;21.40;;;8.90;99.90;;;;;;5254968;28;20519;-50
2022/10/14 01:41:56;;;;;;;32.57;22.30;;;8.80;99.90;;;;;;5254437;28;20911;-51
2022/10/14 01:44:30;;;;;;;35.57;23.77;;;8.80;99.90;;;;;;5273307;28;20476;-50
2022/10/14 01:47:02;;;;;;;39.83;25.23;;;8.80;99.90;;;;;;5267111;28;20462;-50
2022/10/14 01:49:39;;;;;;;37.70;25.00;;;8.80;99.90;;;;;;5257318;28;20476;-50
2022/10/14 01:52:21;;;;;;;41.90;24.07;;;8.70;99.90;;;;;;5273429;28;20522;-49
2022/10/14 01:54:55;;;;;;;43.33;23.23;;;8.70;99.90;;;;;;5259035;28;20493;-49
2022/10/14 01:57:29;;;;;;;41.10;23.80;;;8.80;99.90;;;;;;5254790;28;20452;-51
2022/10/14 02:00:01;;;;;;;39.97;23.57;;;8.80;99.90;;;;;;5255910;28;20956;-51
2022/10/14 02:02:36;;;;;;;33.73;22.60;;;8.70;99.90;;;;;;5274204;28;20447;-51
2022/10/14 02:05:37;;;;;;;34.23;22.60;;;8.80;99.90;;;;;;5265779;28;20431;-51
2022/10/14 02:08:31;;;;;;;35.63;21.07;;;8.70;99.90;;;;;;5263825;28;20461;-52
2022/10/14 02:11:14;;;;;;;40.97;23.30;;;8.70;99.90;;;;;;5266266;28;20454;-50
2022/10/14 02:14:10;;;;;;;36.73;22.17;;;8.70;99.90;;;;;;5261545;28;20463;-50
2022/10/14 02:16:52;;;;;;;42.93;24.97;;;8.70;99.90;;;;;;5265220;28;21029;-51
2022/10/14 02:19:45;;;;;;;35.73;23.37;;;8.60;99.90;;;;;;5268768;28;20459;-52
2022/10/14 02:22:38;;;;;;;32.60;23.23;;;8.60;99.90;;;;;;5240172;28;20480;-49
2022/10/14 02:25:20;;;;;;;41.70;23.97;;;8.60;99.90;;;;;;5272926;28;20448;-51
2022/10/14 02:27:52;;;;;;;42.30;25.33;;;8.60;99.90;;;;;;5263914;28;20470;-51
2022/10/14 02:30:24;;;;;;;44.47;24.80;;;8.50;99.90;;;;;;5263657;28;21217;-51
2022/10/14 02:32:57;;;;;;;40.77;25.13;;;8.50;99.90;;;;;;5268503;28;20446;-50
2022/10/14 02:35:30;;;;;;;39.73;23.50;;;8.50;99.90;;;;;;5256545;28;20475;-50
2022/10/14 02:38:01;;;;;;;40.97;24.57;;;8.60;99.90;;;;;;5263414;28;20452;-51
2022/10/14 02:40:36;;;;;;;37.53;22.30;;;8.70;99.90;;;;;;5264574;28;20928;-50
2022/10/14 02:43:09;;;;;;;40.27;24.40;;;8.60;99.90;;;;;;5251127;28;20561;-50
2022/10/14 02:45:42;;;;;;;41.30;26.37;;;8.70;99.90;;;;;;5264981;28;20432;-51
2022/10/14 02:48:13;;;;;;;33.90;24.07;;;8.70;99.90;;;;;;5260097;28;20475;-51
2022/10/14 02:50:43;;;;;;;29.97;21.43;;;8.80;99.90;;;;;;5246230;28;20799;-51
2022/10/14 02:53:16;;;;;;;28.57;19.87;;;8.80;99.90;;;;;;5262597;28;20182;-51
2022/10/14 02:55:46;;;;;;;34.83;22.10;;;8.80;99.90;;;;;;5258569;28;20213;-51
2022/10/14 02:58:17;;;;;;;29.90;21.23;;;8.80;99.90;;;;;;5236382;28;20449;-51
2022/10/14 03:00:48;;;;;;;27.77;20.23;;;8.80;99.90;;;;;;5234599;28;20169;-50
2022/10/14 03:03:19;;;;;;;29.53;19.90;;;8.80;99.90;;;;;;5271173;28;20266;-51
2022/10/14 03:05:49;;;;;;;25.47;18.37;;;8.90;99.90;;;;;;5268656;28;20966;-51
2022/10/14 03:08:20;;;;;;;31.93;21.50;;;8.90;99.90;;;;;;5250082;28;20200;-50
2022/10/14 03:10:51;;;;;;;32.37;21.00;;;8.90;99.90;;;;;;5249158;28;20487;-50
2022/10/14 03:13:21;;;;;;;42.93;21.00;;;8.90;99.90;;;;;;5243260;28;20181;-50
2022/10/14 03:15:52;;;;;;;27.27;20.03;;;9.00;99.90;;;;;;5255657;28;20209;-51
2022/10/14 03:18:23;;;;;;;28.57;18.70;;;9.00;99.90;;;;;;5248698;28;20200;-50
2022/10/14 03:20:53;;;;;;;31.70;20.17;;;9.00;99.90;;;;;;5253919;28;20169;-51
2022/10/14 03:23:24;;;;;;;36.33;20.93;;;9.00;99.90;;;;;;5248256;28;20182;-52
2022/10/14 03:25:54;;;;;;;29.90;19.73;;;9.10;99.90;;;;;;5264666;28;20185;-51
2022/10/14 03:28:25;;;;;;;32.10;20.80;;;9.10;99.90;;;;;;5266693;28;20219;-50
2022/10/14 03:30:55;;;;;;;32.73;20.10;;;9.20;99.90;;;;;;5273725;28;20554;-50
2022/10/14 03:33:26;;;;;;;37.60;20.70;;;9.30;99.90;;;;;;5273924;28;20174;-51
2022/10/14 03:35:56;;;;;;;29.73;19.17;;;9.30;99.90;;;;;;5266699;28;20232;-51
2022/10/14 03:38:27;;;;;;;32.50;18.70;;;9.40;99.90;;;;;;5266189;28;20190;-50
2022/10/14 03:40:58;;;;;;;31.20;19.20;;;9.40;99.90;;;;;;5251643;28;20170;-51
2022/10/14 03:43:28;;;;;;;35.60;19.73;;;9.50;99.90;;;;;;5255648;28;20177;-51
2022/10/14 03:45:59;;;;;;;30.80;18.90;;;9.50;99.90;;;;;;5256880;28;20230;-52
2022/10/14 03:48:29;;;;;;;29.40;18.80;;;9.50;99.90;;;;;;5246529;22;20221;-47
2022/10/14 03:51:00;;;;;;;26.33;17.20;;;9.40;99.90;;;;;;5245823;28;20224;-47
2022/10/14 03:53:31;;;;;;;23.80;15.30;;;9.40;99.90;;;;;;5228402;28;20181;-47
2022/10/14 03:56:01;;;;;;;34.53;18.50;;;9.30;99.90;;;;;;5245737;28;20190;-46
2022/10/14 03:58:32;;;;;;;35.70;18.80;;;9.30;99.90;;;;;;5243404;28;20213;-46
2022/10/14 04:01:02;;;;;;;35.47;19.10;;;9.20;99.90;;;;;;5240581;28;20174;-47
2022/10/14 04:03:33;;;;;;;28.40;20.07;;;9.20;99.90;;;;;;5220176;28;20186;-45
2022/10/14 04:06:04;;;;;;;32.10;20.07;;;9.10;99.90;;;;;;5224156;28;20201;-47
2022/10/14 04:08:34;;;;;;;35.30;20.77;;;9.10;99.90;;;;;;5245317;28;20288;-46
2022/10/14 04:11:05;;;;;;;41.57;21.23;;;9.00;99.90;;;;;;5240732;28;20650;-46
2022/10/14 04:13:36;;;;;;;35.20;18.43;;;9.00;99.90;;;;;;5247860;28;20269;-50
2022/10/14 04:16:08;;;;;;;35.60;19.83;;;9.00;99.90;;;;;;5245338;28;20464;-46
2022/10/14 04:18:39;;;;;;;34.10;19.73;;;8.90;99.90;;;;;;5241267;28;20292;-47
2022/10/14 04:21:11;;;;;;;29.50;17.47;;;8.80;99.90;;;;;;5227568;28;20638;-46
2022/10/14 04:23:41;;;;;;;42.63;21.00;;;8.80;99.90;;;;;;5244787;28;20186;-48
2022/10/14 04:26:12;;;;;;;37.43;19.20;;;8.80;99.90;;;;;;5231191;28;20436;-46
2022/10/14 04:28:43;;;;;;;28.53;18.47;;;8.80;99.90;;;;;;5247767;28;20301;-47
2022/10/14 04:31:13;;;;;;;31.07;19.67;;;8.70;99.90;;;;;;5244780;28;20182;-49
2022/10/14 04:33:44;;;;;;;44.33;21.80;;;8.70;99.90;;;;;;5226804;28;20183;-48
2022/10/14 04:36:14;;;;;;;39.63;20.53;;;8.70;99.90;;;;;;5247035;28;20218;-47
2022/10/14 04:38:45;;;;;;;31.80;19.97;;;8.60;99.90;;;;;;5246416;28;20550;-47
2022/10/14 04:41:16;;;;;;;39.83;21.30;;;8.60;99.90;;;;;;5247112;28;20210;-47
2022/10/14 04:43:46;;;;;;;45.87;23.40;;;8.60;99.90;;;;;;5233001;28;20186;-48
2022/10/14 04:46:17;;;;;;;29.80;20.93;;;8.60;99.90;;;;;;5239456;28;20189;-47
2022/10/14 04:48:49;;;;;;;45.93;21.90;;;8.60;99.90;;;;;;5234090;28;20267;-47
2022/10/14 04:51:19;;;;;;;36.57;23.30;;;8.60;99.90;;;;;;5224437;28;20193;-48
2022/10/14 04:53:50;;;;;;;34.00;19.93;;;8.60;99.90;;;;;;5241588;28;20449;-48
2022/10/14 04:56:20;;;;;;;29.97;18.47;;;8.60;99.90;;;;;;5244805;28;20194;-46
2022/10/14 04:58:51;;;;;;;20.43;15.60;;;8.60;99.90;;;;;;5219494;28;20198;-46
2022/10/14 05:01:21;;;;;;;35.60;20.17;;;8.60;99.90;;;;;;5251066;28;20218;-46
2022/10/14 05:03:52;;;;;;;30.53;19.67;;;8.70;99.90;;;;;;5238268;28;20190;-48
2022/10/14 05:06:23;;;;;;;31.27;20.00;;;8.70;99.90;;;;;;5217110;28;20194;-46
2022/10/14 05:08:53;;;;;;;39.40;19.93;;;8.80;99.90;;;;;;5227179;28;20693;-46
2022/10/14 05:11:24;;;;;;;33.30;20.87;;;8.90;99.90;;;;;;5245373;28;20197;-47
2022/10/14 05:13:55;;;;;;;35.20;21.10;;;8.90;99.90;;;;;;5239525;28;20216;-47
2022/10/14 05:16:25;;;;;;;36.40;20.43;;;9.00;99.90;;;;;;5243845;28;20708;-47
2022/10/14 05:18:56;;;;;;;33.27;21.00;;;9.00;99.90;;;;;;5246517;28;20229;-49
2022/10/14 05:21:27;;;;;;;35.20;20.40;;;9.10;99.90;;;;;;5246788;28;20268;-47
2022/10/14 05:23:57;;;;;;;32.13;19.77;;;9.10;99.90;;;;;;5232387;28;20190;-49
2022/10/14 05:26:28;;;;;;;33.40;20.07;;;9.20;99.90;;;;;;5246562;28;20197;-46
2022/10/14 05:28:59;;;;;;;26.33;18.10;;;9.20;99.90;;;;;;5249321;28;20189;-47
2022/10/14 05:31:30;;;;;;;40.50;19.43;;;9.30;99.90;;;;;;5227513;28;20182;-49
2022/10/14 05:34:00;;;;;;;30.40;19.23;;;9.40;99.90;;;;;;5237788;28;20513;-47
2022/10/14 05:36:31;;;;;;;35.87;17.90;;;9.40;99.90;;;;;;5245968;28;20577;-48
2022/10/14 05:39:05;;;;;;;38.00;17.60;;;9.40;99.90;;;;;;5252236;28;20644;-47
2022/10/14 05:41:37;;;;;;;24.07;17.30;;;9.50;99.90;;;;;;5259646;28;20528;-46
2022/10/14 05:44:10;;;;;;;21.57;15.53;;;9.50;99.90;;;;;;5246886;28;20844;-47
2022/10/14 05:46:40;;;;;;;27.43;16.90;;;9.50;99.90;;;;;;5232931;28;20762;-47
2022/10/14 05:49:11;;;;;;;43.90;16.13;;;9.70;99.90;;;;;;5257670;28;20574;-47
2022/10/14 05:51:42;;;;;;;26.53;18.77;;;9.80;99.90;;;;;;5232253;28;21005;-46
2022/10/14 05:54:12;;;;;;;25.53;17.33;;;9.80;99.90;;;;;;5250473;28;20645;-49
2022/10/14 05:56:43;;;;;;;30.10;17.77;;;9.90;99.90;;;;;;5245096;28;20217;-48
2022/10/14 05:59:14;;;;;;;40.07;20.23;;;9.90;99.90;;;;;;5252356;28;20186;-46
2022/10/14 06:01:44;;;;;;;34.33;17.10;;;10.00;99.90;;;;;;5229748;28;20645;-46
2022/10/14 06:04:19;;;;;;;27.50;17.73;;;10.10;99.90;;;;;;5226988;28;20645;-48
2022/10/14 06:06:50;;;;;;;24.87;15.90;;;10.20;99.90;;;;;;5243767;28;20218;-45
2022/10/14 06:09:20;;;;;;;25.20;16.60;;;10.20;99.90;;;;;;5251995;28;20424;-51
2022/10/14 06:11:51;;;;;;;24.73;16.63;;;10.20;99.90;;;;;;5242723;28;20273;-48
2022/10/14 06:14:21;;;;;;;41.17;18.07;;;10.30;99.90;;;;;;5220898;28;20179;-50
2022/10/14 06:16:52;;;;;;;23.23;16.00;;;10.40;99.90;;;;;;5245163;28;20202;-49
2022/10/14 06:19:23;;;;;;;29.33;17.17;;;10.40;99.90;;;;;;5237646;28;20182;-52
2022/10/14 06:21:53;;;;;;;31.70;18.20;;;10.50;99.90;;;;;;5224427;28;20190;-47
2022/10/14 06:24:24;;;;;;;33.40;15.33;;;10.50;99.90;;;;;;5231422;28;20225;-47
2022/10/14 06:26:54;;;;;;;31.07;16.87;;;10.70;99.90;;;;;;5226419;28;20558;-47
2022/10/14 06:29:30;;;;;;;28.70;17.03;;;10.70;99.90;;;;;;5248079;28;20258;-47
2022/10/14 06:32:00;;;;;;;25.03;16.57;;;10.60;99.90;;;;;;5247987;28;20189;-47
2022/10/14 06:34:31;;;;;;;29.07;16.03;;;10.70;99.90;;;;;;5249431;28;20464;-46
2022/10/14 06:37:02;;;;;;;22.30;15.37;;;10.70;99.90;;;;;;5250710;28;20735;-47
2022/10/14 06:39:32;;;;;;;29.77;16.17;;;10.70;99.90;;;;;;5244479;28;20433;-48
2022/10/14 06:42:03;;;;;;;35.03;16.60;;;10.80;99.90;;;;;;5222569;28;20186;-47
2022/10/14 06:44:34;;;;;;;37.87;16.10;;;11.00;99.90;;;;;;5222480;28;20187;-47
2022/10/14 06:47:07;;;;;;;30.13;16.60;;;11.00;99.90;;;;;;5250018;28;20342;-47
2022/10/14 06:49:37;;;;;;;27.90;16.13;;;11.00;99.90;;;;;;5246137;28;20436;-47
2022/10/14 06:52:08;;;;;;;24.57;15.80;;;11.00;99.90;;;;;;5243463;28;20876;-45
2022/10/14 06:54:38;;;;;;;27.90;17.13;;;11.10;99.90;;;;;;5245329;28;20551;-47
2022/10/14 06:57:09;;;;;;;26.53;17.13;;;11.10;99.90;;;;;;5242243;28;20210;-47
2022/10/14 06:59:39;;;;;;;24.93;15.50;;;11.10;99.90;;;;;;5227136;28;20217;-48
2022/10/14 07:02:10;;;;;;;25.90;16.90;;;11.10;99.90;;;;;;5214736;28;20267;-52
2022/10/14 07:04:41;;;;;;;29.60;16.17;;;11.20;99.90;;;;;;5217191;28;20186;-49
2022/10/14 07:07:11;;;;;;;21.77;14.80;;;11.30;99.90;;;;;;5235201;28;20209;-55
2022/10/14 07:09:42;;;;;;;23.63;17.07;;;11.40;99.90;;;;;;5251362;28;20206;-53
2022/10/14 07:12:12;;;;;;;26.73;16.63;;;11.60;99.90;;;;;;5251923;28;20680;-46
2022/10/14 07:14:43;;;;;;;22.37;15.10;;;11.60;99.90;;;;;;5241709;28;20210;-47
2022/10/14 07:17:13;;;;;;;27.03;16.63;;;11.60;99.90;;;;;;5245188;28;20278;-51
2022/10/14 07:19:44;;;;;;;26.93;16.13;;;11.70;99.90;;;;;;5246485;28;20248;-47
2022/10/14 07:22:16;;;;;;;27.50;16.13;;;11.80;99.90;;;;;;5250068;28;20190;-47
2022/10/14 07:24:46;;;;;;;21.93;16.50;;;11.90;99.90;;;;;;5232097;28;20264;-49
2022/10/14 07:27:19;;;;;;;27.37;16.70;;;12.10;99.90;;;;;;5250882;28;20456;-48
2022/10/14 07:29:51;;;;;;;23.37;15.43;;;12.30;99.90;;;;;;5246909;28;20190;-50
2022/10/14 07:32:21;;;;;;;26.33;15.20;;;12.50;99.90;;;;;;5230411;28;20436;-49
2022/10/14 07:34:52;;;;;;;32.43;14.83;;;12.50;99.90;;;;;;5240919;28;20999;-50
2022/10/14 07:37:22;;;;;;;23.00;15.30;;;12.60;99.90;;;;;;5226164;28;20198;-50
2022/10/14 07:39:53;;;;;;;22.30;15.30;;;12.70;99.90;;;;;;5247662;28;20183;-49
2022/10/14 07:42:23;;;;;;;23.90;15.67;;;12.80;99.90;;;;;;5228541;28;20672;-48
2022/10/14 07:44:56;;;;;;;29.43;15.17;;;12.80;99.90;;;;;;5243406;28;20659;-49
2022/10/14 07:47:26;;;;;;;24.03;14.37;;;12.80;99.90;;;;;;5248782;28;20213;-49
2022/10/14 07:49:58;;;;;;;21.40;13.30;;;12.90;99.90;;;;;;5245039;28;20850;-50
2022/10/14 07:52:28;;;;;;;20.87;14.43;;;13.00;99.90;;;;;;5243907;28;20256;-49
2022/10/14 07:54:59;;;;;;;25.80;15.53;;;13.00;99.90;;;;;;5209213;28;20452;-50
2022/10/14 07:57:29;;;;;;;25.37;15.07;;;13.10;99.90;;;;;;5240336;28;20194;-49
2022/10/14 08:00:00;;;;;;;17.80;13.37;;;13.10;99.90;;;;;;5227132;28;20201;-49
2022/10/14 08:02:31;;;;;;;25.90;12.53;;;13.20;99.90;;;;;;5226920;28;20180;-49
2022/10/14 08:05:02;;;;;;;22.07;14.80;;;13.30;99.90;;;;;;5244022;28;20220;-50
2022/10/14 08:07:33;;;;;;;20.20;14.13;;;13.40;99.90;;;;;;5236316;28;20685;-49
2022/10/14 08:10:04;;;;;;;28.27;16.50;;;13.50;99.90;;;;;;5242666;28;20440;-51
2022/10/14 08:12:35;;;;;;;23.60;14.20;;;13.60;99.90;;;;;;5227430;28;20189;-49
2022/10/14 08:15:05;;;;;;;19.30;13.20;;;13.80;99.90;;;;;;5242151;28;20456;-49
2022/10/14 08:17:36;;;;;;;25.90;14.83;;;13.90;99.90;;;;;;5236819;28;20320;-50
2022/10/14 08:20:07;;;;;;;21.70;14.67;;;14.20;99.90;;;;;;5227746;28;20197;-50
2022/10/14 08:22:37;;;;;;;19.17;14.37;;;14.50;99.90;;;;;;5217569;28;20189;-50
2022/10/14 08:25:08;;;;;;;23.00;14.23;;;14.50;99.90;;;;;;5243061;28;20186;-50
2022/10/14 08:27:39;;;;;;;22.57;13.07;;;14.70;99.90;;;;;;5244470;28;20217;-49
2022/10/14 08:30:10;;;;;;;22.87;14.00;;;14.70;99.90;;;;;;5237787;28;20182;-49
2022/10/14 08:32:40;;;;;;;18.67;12.30;;;14.90;99.90;;;;;;5243329;28;20554;-49
2022/10/14 08:35:11;;;;;;;25.17;14.67;;;15.00;99.90;;;;;;5244761;28;20467;-51
2022/10/14 08:37:42;;;;;;;27.03;14.20;;;15.10;99.90;;;;;;5237501;28;20202;-50
2022/10/14 08:40:15;;;;;;;16.33;11.93;;;15.10;99.90;;;;;;5226112;28;21481;-52
2022/10/14 08:43:13;;;;;;;21.50;12.63;;;15.20;99.90;;;;;;5222098;28;21344;-51
2022/10/14 08:45:54;;;;;;;20.33;13.17;;;15.30;99.90;;;;;;5243584;28;20439;-52
2022/10/14 08:48:27;;;;;;;22.73;13.60;;;15.30;99.90;;;;;;5221958;28;20508;-53
2022/10/14 08:51:14;;;;;;;31.97;14.70;;;15.40;99.90;;;;;;5203742;28;20444;-53
2022/10/14 08:53:55;;;;;;;18.37;12.77;;;15.80;99.90;;;;;;5246221;28;20447;-50
2022/10/14 08:56:25;;;;;;;17.40;12.60;;;16.00;99.90;;;;;;5240793;28;20460;-50
2022/10/14 08:59:03;;;;;;;18.93;13.00;;;16.50;99.90;;;;;;5246001;28;20486;-49
2022/10/14 09:01:52;;;;;;;25.60;13.90;;;16.90;99.90;;;;;;5241491;28;20269;-50
2022/10/14 09:04:23;;;;;;;27.10;13.10;;;17.20;99.90;;;;;;5242478;28;20510;-49
2022/10/14 09:06:55;;;;;;;31.33;12.30;;;17.20;99.90;;;;;;5244413;28;20452;-50
2022/10/14 09:09:44;;;;;;;22.13;14.20;;;17.20;99.90;;;;;;5225336;28;20277;-50
2022/10/14 09:12:22;;;;;;;18.60;12.03;;;17.30;99.90;;;;;;5249264;28;20960;-51
2022/10/14 09:14:59;;;;;;;22.80;12.67;;;17.00;99.90;;;;;;5244023;28;20495;-50
2022/10/14 09:18:00;;;;;;;17.77;12.13;;;17.00;99.90;;;;;;5241364;28;20450;-50
2022/10/14 09:20:31;;;;;;;26.10;14.07;;;17.10;99.90;;;;;;5250003;28;20430;-50
2022/10/14 09:23:16;;;;;;;18.17;11.53;;;17.30;99.90;;;;;;5243534;28;20778;-49
2022/10/14 09:26:00;;;;;;;27.93;12.77;;;17.30;99.90;;;;;;5239914;28;20174;-51
2022/10/14 09:28:40;;;;;;;21.90;13.37;;;17.30;99.90;;;;;;5226252;28;20539;-50
2022/10/14 09:31:12;;;;;;;24.60;12.50;;;17.20;99.90;;;;;;5244831;28;20447;-49
2022/10/14 09:33:43;;;;;;;17.50;12.67;;;17.20;99.90;;;;;;5242953;28;20443;-47
2022/10/14 09:36:19;;;;;;;20.13;11.93;;;17.00;99.90;;;;;;5242479;28;20897;-48
2022/10/14 09:38:52;;;;;;;26.77;13.30;;;16.90;99.90;;;;;;5244138;28;20453;-47
2022/10/14 09:41:29;;;;;;;19.80;11.70;;;16.70;99.90;;;;;;5246892;28;20440;-47
2022/10/14 09:44:21;;;;;;;15.80;11.40;;;16.50;99.90;;;;;;5245327;28;20451;-47
2022/10/14 09:46:58;;;;;;;18.20;11.40;;;16.50;99.90;;;;;;5227892;28;20539;-52
2022/10/14 09:49:44;;;;;;;18.10;11.67;;;16.50;99.90;;;;;;5219545;28;20459;-52
2022/10/14 09:52:27;;;;;;;20.97;12.47;;;16.70;99.90;;;;;;5238491;28;20487;-50
2022/10/14 09:55:00;;;;;;;23.90;12.70;;;16.60;99.90;;;;;;5213785;28;20464;-50
2022/10/14 09:57:31;;;;;;;19.40;12.57;;;16.60;99.90;;;;;;5244648;28;20992;-50
2022/10/14 10:00:05;;;;;;;25.10;15.33;;;16.60;99.90;;;;;;5240140;28;20496;-50
2022/10/14 10:02:43;;;;;;;22.23;13.23;;;16.50;99.90;;;;;;5243867;28;20479;-52
2022/10/14 10:05:29;;;;;;;26.40;14.13;;;16.50;99.90;;;;;;5230192;28;20467;-51
2022/10/14 10:08:16;;;;;;;22.77;13.30;;;16.40;99.90;;;;;;5241686;28;20971;-52
2022/10/14 10:11:08;;;;;;;28.83;14.87;;;16.50;99.90;;;;;;5236264;28;20440;-51
2022/10/14 10:13:44;;;;;;;22.57;13.90;;;16.40;99.90;;;;;;5241847;28;20556;-53
2022/10/14 10:16:33;;;;;;;22.80;14.87;;;16.30;99.90;;;;;;5232516;28;20466;-51
2022/10/14 10:19:22;;;;;;;23.03;14.47;;;16.20;99.90;;;;;;5243427;28;20753;-53
2022/10/14 10:21:54;;;;;;;26.97;11.70;;;16.10;99.90;;;;;;5228937;28;20488;-50
2022/10/14 10:24:24;;;;;;;19.70;13.00;;;16.20;99.90;;;;;;5229800;28;20478;-52
2022/10/14 10:26:55;;;;;;;31.30;16.87;;;16.40;99.90;;;;;;5245835;28;20456;-51
2022/10/14 10:29:33;;;;;;;24.50;14.97;;;16.80;99.90;;;;;;5242387;28;20175;-51
2022/10/14 10:32:13;;;;;;;21.13;13.43;;;16.80;99.90;;;;;;5235653;28;20247;-50
2022/10/14 10:34:56;;;;;;;22.80;15.00;;;17.00;99.90;;;;;;5242049;28;20548;-51
2022/10/14 10:37:30;;;;;;;31.60;12.90;;;17.10;99.90;;;;;;5224616;28;20453;-52
2022/10/14 10:40:25;;;;;;;19.57;13.37;;;17.20;99.90;;;;;;5246319;28;20428;-50
2022/10/14 10:43:24;;;;;;;23.10;12.57;;;17.30;99.90;;;;;;5239757;28;20436;-51
2022/10/14 10:46:10;;;;;;;21.17;12.73;;;17.50;99.90;;;;;;5243508;28;20436;-52
2022/10/14 10:48:46;;;;;;;19.30;12.40;;;17.80;99.90;;;;;;5237863;28;20472;-51
2022/10/14 10:51:33;;;;;;;19.10;13.37;;;17.90;99.90;;;;;;5233906;28;20428;-52
2022/10/14 10:54:34;;;;;;;23.00;13.20;;;18.10;99.90;;;;;;5227681;28;20538;-53
2022/10/14 10:57:23;;;;;;;19.20;13.73;;;18.10;99.90;;;;;;5237399;28;20443;-53
2022/10/14 11:00:01;;;;;;;20.83;13.23;;;18.20;99.90;;;;;;5230690;28;20437;-52
2022/10/14 11:03:03;;;;;;;20.40;12.60;;;18.30;99.90;;;;;;5249275;28;20919;-49
2022/10/14 11:06:08;;;;;;;21.70;13.73;;;18.40;99.90;;;;;;5244739;28;20432;-51
2022/10/14 11:12:13;;;;;;;19.10;11.87;;;18.40;99.90;;;;;;5242596;28;20859;-50
2022/10/14 11:15:04;;;;;;;21.30;12.80;;;18.50;99.90;;;;;;5235570;28;20460;-51
2022/10/14 11:18:00;;;;;;;21.57;11.43;;;18.60;99.90;;;;;;5224228;28;20460;-52
2022/10/14 11:20:55;;;;;;;19.87;12.40;;;18.70;99.90;;;;;;5228708;28;20436;-51
2022/10/14 11:23:38;;;;;;;19.10;11.53;;;18.60;99.90;;;;;;5247912;28;20561;-51
2022/10/14 11:26:23;;;;;;;19.00;10.87;;;18.60;99.90;;;;;;5226263;28;20518;-52
2022/10/14 11:28:59;;;;;;;15.77;11.10;;;18.50;99.90;;;;;;5217727;28;20491;-53
2022/10/14 11:31:50;;;;;;;15.47;11.63;;;18.50;99.90;;;;;;5245752;28;20938;-52
2022/10/14 11:34:29;;;;;;;18.50;11.90;;;18.30;99.90;;;;;;5241613;28;20428;-51
2022/10/14 11:37:25;;;;;;;23.30;12.97;;;18.20;99.90;;;;;;5232862;28;20875;-53
2022/10/14 11:40:20;;;;;;;24.97;11.37;;;18.20;99.90;;;;;;5239406;28;20531;-51
2022/10/14 11:43:12;;;;;;;14.00;10.40;;;18.40;99.90;;;;;;5239562;28;20446;-50
2022/10/14 11:46:06;;;;;;;17.20;11.20;;;18.70;99.90;;;;;;5217246;28;20521;-50
2022/10/14 11:48:52;;;;;;;23.10;12.77;;;19.10;99.90;;;;;;5227539;28;20487;-51
2022/10/14 11:51:39;;;;;;;15.80;10.60;;;18.90;99.90;;;;;;5242318;28;20436;-51
2022/10/14 11:54:21;;;;;;;14.23;10.30;;;18.60;99.90;;;;;;5224978;28;20450;-52
2022/10/14 11:56:59;;;;;;;17.67;11.87;;;18.50;99.90;;;;;;5246526;28;20854;-54
2022/10/14 11:59:42;;;;;;;18.53;12.40;;;18.60;99.90;;;;;;5239773;28;20424;-53
2022/10/14 12:02:46;;;;;;;14.03;10.40;;;18.60;99.90;;;;;;5244694;28;20836;-53
2022/10/14 12:05:22;;;;;;;16.87;10.20;;;18.60;99.90;;;;;;5238468;28;20436;-53
2022/10/14 12:08:10;;;;;;;20.30;10.67;;;18.70;99.90;;;;;;5230405;28;20455;-53
2022/10/14 12:10:50;;;;;;;16.80;10.70;;;18.70;99.90;;;;;;5227306;28;20434;-51
2022/10/14 12:13:40;;;;;;;18.13;9.80;;;18.60;99.90;;;;;;5240409;28;20443;-52
2022/10/14 12:16:20;;;;;;;13.90;8.73;;;18.60;99.90;;;;;;5243405;28;20492;-54
2022/10/14 12:18:56;;;;;;;17.50;9.87;;;18.60;99.90;;;;;;5244888;28;20467;-51
2022/10/14 12:21:48;;;;;;;15.47;8.80;;;18.50;99.90;;;;;;5226980;28;20444;-49
2022/10/14 12:24:23;;;;;;;11.20;7.57;;;18.40;99.90;;;;;;5234273;28;20432;-49
2022/10/14 12:26:55;;;;;;;14.20;9.03;;;18.40;99.90;;;;;;5242676;28;20491;-52
2022/10/14 12:29:31;;;;;;;14.43;9.60;;;18.40;99.90;;;;;;5225561;28;20444;-53
2022/10/14 12:32:02;;;;;;;15.40;8.30;;;18.40;99.90;;;;;;5235770;28;20477;-51
2022/10/14 12:34:40;;;;;;;22.13;9.10;;;18.40;99.90;;;;;;5239318;28;20912;-53
2022/10/14 12:37:23;;;;;;;16.60;8.33;;;18.50;99.90;;;;;;5236953;28;20217;-53
2022/10/14 12:40:13;;;;;;;14.37;9.13;;;18.60;99.90;;;;;;5244775;28;20526;-51
2022/10/14 12:42:56;;;;;;;12.00;9.50;;;18.50;99.90;;;;;;5251896;28;20439;-50
2022/10/14 12:45:30;;;;;;;12.67;7.97;;;18.40;99.90;;;;;;5217981;28;20441;-51
2022/10/14 12:48:15;;;;;;;10.43;9.13;;;18.20;99.90;;;;;;5253175;28;20967;-51
2022/10/14 12:50:48;;;;;;;13.33;9.50;;;18.30;99.90;;;;;;5230315;28;20522;-50
2022/10/14 12:53:31;;;;;;;27.13;9.20;;;18.40;99.90;;;;;;5244776;28;20436;-51
2022/10/14 12:56:03;;;;;;;10.03;7.70;;;18.30;99.90;;;;;;5233235;28;20476;-54
2022/10/14 12:58:56;;;;;;;11.70;8.60;;;18.30;99.90;;;;;;5225614;28;20494;-52
2022/10/14 13:01:27;;;;;;;13.37;8.97;;;18.20;99.90;;;;;;5222453;28;20431;-50
2022/10/14 13:03:59;;;;;;;19.93;11.40;;;18.30;99.90;;;;;;5245116;28;20436;-51
2022/10/14 13:06:38;;;;;;;17.13;10.63;;;18.40;99.90;;;;;;5230152;28;20433;-52
2022/10/14 13:09:11;;;;;;;13.23;9.03;;;18.40;99.90;;;;;;5228261;28;20432;-50
2022/10/14 13:12:03;;;;;;;18.40;11.10;;;18.70;99.90;;;;;;5251982;28;20424;-52
2022/10/14 13:14:59;;;;;;;12.00;8.43;;;19.00;99.90;;;;;;5204837;28;20594;-50
2022/10/14 13:17:46;;;;;;;10.53;7.80;;;19.00;99.90;;;;;;5245426;28;20452;-51
2022/10/14 13:20:35;;;;;;;22.03;10.83;;;19.00;99.90;;;;;;5244591;28;20432;-51
2022/10/14 13:23:20;;;;;;;16.77;8.80;;;18.90;99.90;;;;;;5227926;28;20960;-51